Time;durP1;ratioP1;P1;durP2;ratioP2;P2;SDS_P1;SDS_P2;PMS_P1;PMS_P2;Temp;Humidity;BMP_temperature;BMP_pressure;BME280_temperature;BME280_humidity;BME280_pressure;Samples;Min_cycle;Max_cycle;Signal;HPM_P1;HPM_P2
2022/11/15 00:02:22;;;;;;;30.40;17.83;;;;;;;8.85;100.00;101193.38;4954077;28;20051;-73
2022/11/15 00:05:08;;;;;;;34.83;17.90;;;;;;;8.75;100.00;101191.31;4939610;29;20407;-72
2022/11/15 00:07:56;;;;;;;33.85;17.33;;;;;;;8.77;100.00;101197.34;4936511;29;20059;-73
2022/11/15 00:10:53;;;;;;;32.78;18.35;;;;;;;8.78;100.00;101190.81;4955259;29;20047;-72
2022/11/15 00:13:40;;;;;;;34.70;18.38;;;;;;;8.77;100.00;101191.06;4955618;29;20047;-72
2022/11/15 00:16:26;;;;;;;31.17;16.65;;;;;;;8.82;100.00;101188.41;4955749;29;20051;-72
2022/11/15 00:19:13;;;;;;;32.80;18.48;;;;;;;8.74;100.00;101182.31;4947702;29;20062;-72
2022/11/15 00:22:00;;;;;;;32.20;17.95;;;;;;;8.73;100.00;101185.28;4939475;28;20050;-73
2022/11/15 00:24:46;;;;;;;34.08;17.98;;;;;;;8.62;100.00;101178.03;4955466;29;20506;-72
2022/11/15 00:27:32;;;;;;;30.52;17.45;;;;;;;8.46;100.00;101172.34;4953318;28;20050;-73
2022/11/15 00:30:19;;;;;;;35.40;16.88;;;;;;;8.45;100.00;101171.50;4954971;29;20058;-72
2022/11/15 00:33:06;;;;;;;33.22;17.45;;;;;;;8.45;100.00;101170.69;4955390;29;20047;-72
2022/11/15 00:35:53;;;;;;;30.23;18.13;;;;;;;8.47;100.00;101163.91;4950420;29;20510;-72
2022/11/15 00:38:40;;;;;;;30.83;16.83;;;;;;;8.49;100.00;101166.38;4936048;29;20047;-73
2022/11/15 00:41:27;;;;;;;31.02;16.13;;;;;;;8.40;100.00;101171.44;4936130;29;20403;-73
2022/11/15 00:44:13;;;;;;;28.67;16.60;;;;;;;8.33;100.00;101177.06;4935978;29;20102;-73
2022/11/15 00:46:59;;;;;;;34.55;18.35;;;;;;;8.43;100.00;101170.94;4935855;29;20044;-72
2022/11/15 00:49:46;;;;;;;33.22;18.05;;;;;;;8.45;100.00;101179.69;4949287;28;20040;-72
2022/11/15 00:52:32;;;;;;;29.40;15.75;;;;;;;8.39;100.00;101177.13;4954914;29;20130;-72
2022/11/15 00:55:19;;;;;;;31.73;16.42;;;;;;;8.24;100.00;101172.28;4944829;29;20062;-72
2022/11/15 00:58:06;;;;;;;30.27;15.93;;;;;;;8.31;100.00;101173.75;4935740;29;20048;-73
2022/11/15 01:00:52;;;;;;;31.15;17.25;;;;;;;8.36;100.00;101166.75;4935831;29;20052;-72
2022/11/15 01:03:40;;;;;;;32.63;16.00;;;;;;;8.29;100.00;101164.19;4935741;29;20040;-73
2022/11/15 01:06:26;;;;;;;26.02;15.25;;;;;;;8.21;100.00;101173.59;4935650;29;20055;-73
2022/11/15 01:09:13;;;;;;;24.10;14.82;;;;;;;8.30;100.00;101169.41;4944506;28;20062;-73
2022/11/15 01:12:00;;;;;;;27.40;14.68;;;;;;;8.33;100.00;101171.59;4953747;29;20469;-73
2022/11/15 01:14:46;;;;;;;26.00;15.68;;;;;;;8.34;100.00;101167.81;4954746;29;20051;-73
2022/11/15 01:17:32;;;;;;;29.25;15.63;;;;;;;8.40;100.00;101163.25;4954642;29;20047;-73
2022/11/15 01:20:19;;;;;;;28.92;14.85;;;;;;;8.32;100.00;101164.50;4954089;29;20043;-73
2022/11/15 01:23:05;;;;;;;26.67;15.00;;;;;;;8.26;100.00;101160.06;4953536;29;20047;-73
2022/11/15 01:25:52;;;;;;;30.70;15.68;;;;;;;8.25;100.00;101147.50;4952471;29;20151;-73
2022/11/15 01:28:40;;;;;;;25.63;14.48;;;;;;;8.19;100.00;101153.94;4946296;29;20414;-73
2022/11/15 01:31:27;;;;;;;29.50;13.88;;;;;;;8.15;100.00;101148.19;4935332;29;20040;-72
2022/11/15 01:34:14;;;;;;;26.55;14.93;;;;;;;8.17;100.00;101137.84;4935253;29;20051;-73
2022/11/15 01:37:01;;;;;;;23.63;13.30;;;;;;;8.15;100.00;101133.72;4951103;29;20376;-73
2022/11/15 01:39:47;;;;;;;24.67;13.32;;;;;;;8.14;100.00;101132.91;4940143;29;20043;-73
2022/11/15 01:42:33;;;;;;;21.50;12.23;;;;;;;8.19;100.00;101127.53;4954435;29;20517;-72
2022/11/15 01:45:20;;;;;;;24.80;13.32;;;;;;;8.19;100.00;101137.59;4954216;28;20039;-73
2022/11/15 01:48:10;;;;;;;21.38;13.48;;;;;;;8.18;100.00;101125.03;4935089;29;20044;-73
2022/11/15 01:50:58;;;;;;;23.05;14.05;;;;;;;8.28;100.00;101127.94;4935131;29;20048;-72
2022/11/15 01:53:49;;;;;;;26.65;13.98;;;;;;;8.24;100.00;101124.03;4934969;29;20052;-73
2022/11/15 01:56:42;;;;;;;29.27;13.88;;;;;;;8.20;99.81;101118.25;4933340;29;20047;-72
2022/11/15 01:59:30;;;;;;;24.60;13.40;;;;;;;8.09;100.00;101110.16;4949686;29;20040;-72
2022/11/15 02:02:16;;;;;;;22.05;12.85;;;;;;;8.13;100.00;101114.06;4954124;29;20051;-73
2022/11/15 02:05:03;;;;;;;22.20;12.98;;;;;;;8.09;100.00;101124.63;4938962;28;20054;-72
2022/11/15 02:07:51;;;;;;;22.13;13.15;;;;;;;8.06;100.00;101123.25;4936414;29;20125;-72
2022/11/15 02:10:38;;;;;;;23.20;13.63;;;;;;;7.92;100.00;101117.31;4935688;28;20403;-73
2022/11/15 02:13:24;;;;;;;22.80;14.63;;;;;;;8.00;100.00;101113.34;4953840;29;20043;-73
2022/11/15 02:16:33;;;;;;;21.08;13.40;;;;;;;8.01;100.00;101104.06;4934837;29;20050;-73
2022/11/15 02:19:31;;;;;;;25.48;13.50;;;;;;;8.01;100.00;101098.63;4947838;29;20050;-73
2022/11/15 02:22:35;;;;;;;24.05;13.85;;;;;;;7.93;100.00;101096.34;4956924;29;20116;-72
2022/11/15 02:25:59;;;;;;;27.38;14.02;;;;;;;7.96;100.00;101086.84;4957760;29;20058;-73
2022/11/15 02:29:03;;;;;;;24.77;14.00;;;;;;;7.98;100.00;101080.06;4947671;29;20066;-72
2022/11/15 02:32:15;;;;;;;26.13;14.88;;;;;;;7.91;100.00;101074.78;4957668;29;20475;-73
2022/11/15 02:35:10;;;;;;;23.65;14.10;;;;;;;7.93;100.00;101077.25;4947645;29;20486;-73
2022/11/15 02:38:02;;;;;;;25.98;13.68;;;;;;;7.93;100.00;101074.53;4956225;29;20047;-73
2022/11/15 02:41:03;;;;;;;26.98;13.88;;;;;;;7.93;100.00;101080.78;4956300;29;20054;-73
2022/11/15 02:44:08;;;;;;;25.45;13.90;;;;;;;7.83;100.00;101086.09;4956664;29;20055;-73
2022/11/15 02:47:13;;;;;;;27.15;14.82;;;;;;;7.85;100.00;101083.09;4956647;29;20054;-73
2022/11/15 02:50:08;;;;;;;23.40;13.45;;;;;;;7.62;100.00;101079.50;4956624;29;20043;-73
2022/11/15 02:52:55;;;;;;;25.13;14.13;;;;;;;7.56;100.00;101086.75;4957305;29;20042;-73
2022/11/15 02:55:47;;;;;;;22.85;12.30;;;;;;;7.57;100.00;101085.69;4957262;29;20044;-73
2022/11/15 02:58:53;;;;;;;21.30;12.65;;;;;;;7.49;98.49;101084.19;4951253;29;20032;-73
2022/11/15 03:02:18;;;;;;;23.25;14.00;;;;;;;7.35;98.59;101085.59;4956356;28;20471;-73
2022/11/15 03:05:37;;;;;;;22.73;12.45;;;;;;;7.28;99.67;101085.72;4955694;29;20059;-72
2022/11/15 03:08:33;;;;;;;25.15;14.27;;;;;;;7.31;99.47;101084.41;4950879;28;20050;-73
2022/11/15 03:11:21;;;;;;;23.33;13.55;;;;;;;7.29;100.00;101079.25;4950733;29;20054;-72
2022/11/15 03:14:35;;;;;;;25.17;13.70;;;;;;;7.23;99.73;101067.41;4956807;29;20056;-73
2022/11/15 03:17:28;;;;;;;22.77;12.90;;;;;;;7.29;99.73;101075.69;4956887;29;20372;-73
2022/11/15 03:20:18;;;;;;;23.75;14.90;;;;;;;7.27;99.62;101067.75;4937568;29;20066;-72
2022/11/15 03:23:08;;;;;;;22.88;13.70;;;;;;;7.20;100.00;101070.66;4937586;29;20044;-73
2022/11/15 03:25:58;;;;;;;19.85;12.90;;;;;;;7.28;100.00;101068.59;4955623;29;20046;-73
2022/11/15 03:28:53;;;;;;;23.30;14.00;;;;;;;7.21;100.00;101075.00;4955708;29;20403;-73
2022/11/15 03:31:47;;;;;;;;;;;;;;;7.27;100.00;101078.63;4956604;28;20372;-73
2022/11/15 03:34:54;;;;;;;26.33;14.73;;;;;;;7.29;100.00;101070.22;4956401;29;19923;-73
2022/11/15 03:37:49;;;;;;;22.92;14.18;;;;;;;7.39;100.00;101081.31;4936747;29;20051;-73
2022/11/15 03:40:59;;;;;;;23.48;14.30;;;;;;;7.42;100.00;101085.44;4937361;29;20047;-73
2022/11/15 03:43:55;;;;;;;24.98;14.32;;;;;;;7.37;99.94;101086.16;4937135;29;20056;-73
2022/11/15 03:46:54;;;;;;;21.88;13.30;;;;;;;7.39;100.00;101081.31;4947638;29;20058;-73
2022/11/15 03:49:57;;;;;;;24.80;13.30;;;;;;;7.35;100.00;101083.69;4940217;29;20043;-73
2022/11/15 03:52:46;;;;;;;20.65;13.10;;;;;;;7.23;100.00;101075.59;4937115;29;20383;-73
2022/11/15 03:55:33;;;;;;;21.23;13.13;;;;;;;7.23;100.00;101072.03;4937029;29;20063;-73
2022/11/15 03:58:19;;;;;;;22.65;12.77;;;;;;;7.35;100.00;101066.53;4940749;29;20042;-73
2022/11/15 04:01:06;;;;;;;21.63;13.15;;;;;;;7.38;100.00;101052.44;4954292;29;20055;-73
2022/11/15 04:03:53;;;;;;;22.55;12.50;;;;;;;7.33;100.00;101038.72;4950624;28;20048;-73
2022/11/15 04:06:39;;;;;;;24.20;13.38;;;;;;;7.35;100.00;101039.28;4936745;29;20051;-73
2022/11/15 04:09:25;;;;;;;19.13;12.60;;;;;;;7.42;100.00;101034.50;4948671;29;20035;-73
2022/11/15 04:12:12;;;;;;;22.27;12.20;;;;;;;7.35;100.00;101042.03;4955919;29;20055;-73
2022/11/15 04:15:07;;;;;;;20.30;12.35;;;;;;;7.18;100.00;101042.81;4955823;29;20055;-72
2022/11/15 04:17:55;;;;;;;21.02;11.73;;;;;;;7.19;100.00;101046.38;4954543;29;20529;-72
2022/11/15 04:26:52;;;;;;;20.85;12.75;;;;;;;7.38;100.00;101057.88;4936397;29;20047;-73
2022/11/15 04:29:38;;;;;;;23.92;13.40;;;;;;;7.42;100.00;101039.16;4948908;29;20132;-73
2022/11/15 04:32:25;;;;;;;23.58;13.13;;;;;;;7.46;100.00;101032.13;4954339;29;20501;-73
2022/11/15 04:35:12;;;;;;;21.25;12.63;;;;;;;7.43;100.00;101033.44;4954843;29;20050;-73
2022/11/15 04:37:59;;;;;;;23.42;13.05;;;;;;;7.32;100.00;101034.34;4955422;29;20816;-73
2022/11/15 04:40:46;;;;;;;23.60;12.18;;;;;;;7.24;100.00;101024.69;4955303;29;20043;-73
2022/11/15 04:43:32;;;;;;;20.33;12.23;;;;;;;7.18;100.00;101031.94;4937172;29;20495;-73
2022/11/15 04:46:19;;;;;;;19.05;12.05;;;;;;;7.15;100.00;101035.16;4934287;29;20060;-73
2022/11/15 04:49:06;;;;;;;24.40;12.77;;;;;;;7.20;100.00;101032.53;4936055;29;20051;-73
2022/11/15 04:51:52;;;;;;;26.00;12.55;;;;;;;7.23;100.00;101029.31;4939230;29;20036;-72
2022/11/15 04:54:38;;;;;;;19.45;12.95;;;;;;;7.21;100.00;101019.72;4944458;29;20051;-73
2022/11/15 04:57:25;;;;;;;20.77;12.00;;;;;;;7.19;100.00;101011.81;4935849;29;20059;-73
2022/11/15 05:00:15;;;;;;;23.33;13.50;;;;;;;7.15;100.00;101021.56;4935857;29;20039;-73
2022/11/15 05:06:07;;;;;;;19.88;11.88;;;;;;;7.08;100.00;101016.25;4943125;29;20062;-73
2022/11/15 05:08:55;;;;;;;19.08;12.38;;;;;;;7.06;99.32;101023.84;4940729;29;20043;-73
2022/11/15 05:11:42;;;;;;;24.27;12.40;;;;;;;7.09;98.97;101019.81;4935752;29;20051;-73
2022/11/15 05:14:29;;;;;;;22.27;12.93;;;;;;;7.11;98.75;101020.38;4935449;29;20480;-73
2022/11/15 05:17:15;;;;;;;20.92;13.23;;;;;;;7.20;98.46;101027.09;4953489;29;20482;-73
2022/11/15 05:20:01;;;;;;;22.02;12.73;;;;;;;7.18;98.25;101021.03;4954683;29;20487;-74
2022/11/15 05:22:48;;;;;;;25.35;13.27;;;;;;;7.17;98.62;101013.97;4953153;29;20043;-73
2022/11/15 05:25:36;;;;;;;22.10;14.18;;;;;;;7.07;100.00;101032.81;4948715;29;20040;-73
2022/11/15 05:28:23;;;;;;;27.08;13.30;;;;;;;7.19;100.00;101038.22;4935222;29;20048;-73
2022/11/15 05:31:12;;;;;;;22.77;13.32;;;;;;;6.93;100.00;101030.41;4935301;29;20050;-74
2022/11/15 05:34:00;;;;;;;22.25;12.85;;;;;;;6.69;100.00;101040.56;4935288;29;20055;-73
2022/11/15 05:36:47;;;;;;;25.10;12.88;;;;;;;6.81;100.00;101037.81;4938605;29;20396;-73
2022/11/15 05:39:33;;;;;;;20.77;12.60;;;;;;;6.66;100.00;101039.19;4951421;29;20043;-73
2022/11/15 05:42:19;;;;;;;23.50;13.13;;;;;;;6.73;100.00;101036.31;4954422;29;20711;-74
2022/11/15 05:45:07;;;;;;;26.35;14.73;;;;;;;6.55;100.00;101045.47;4954342;29;20062;-74
2022/11/15 05:47:57;;;;;;;23.23;13.45;;;;;;;6.54;100.00;101032.94;4954259;29;20470;-74
2022/11/15 05:50:46;;;;;;;24.20;13.88;;;;;;;7.47;100.00;101040.03;4954196;29;20513;-79
2022/11/15 05:53:36;;;;;;;30.70;16.80;;;;;;;7.97;100.00;101042.16;4953323;29;20043;-79
2022/11/15 05:56:22;;;;;;;31.67;16.50;;;;;;;8.51;96.86;101048.84;4954098;29;20046;-79
2022/11/15 05:59:11;;;;;;;25.23;14.38;;;;;;;8.44;96.38;101043.56;4945891;29;20503;-79
2022/11/15 06:01:57;;;;;;;21.05;12.60;;;;;;;8.65;94.60;101052.03;4934703;29;20498;-79
2022/11/15 06:04:44;;;;;;;21.42;12.90;;;;;;;8.94;92.67;101057.28;4936184;29;20066;-78
2022/11/15 06:07:30;;;;;;;19.58;12.80;;;;;;;8.91;92.33;101061.34;4951414;29;20050;-79
2022/11/15 06:10:17;;;;;;;19.10;11.65;;;;;;;8.99;92.29;101057.28;4952952;29;20051;-79
2022/11/15 06:13:04;;;;;;;23.27;11.88;;;;;;;8.89;92.21;101062.66;4953387;29;20060;-79
2022/11/15 06:15:51;;;;;;;22.00;12.95;;;;;;;8.79;93.28;101057.94;4949753;29;20055;-78
2022/11/15 06:18:38;;;;;;;21.23;12.55;;;;;;;9.03;91.15;101052.97;4953842;29;20043;-79
2022/11/15 06:21:24;;;;;;;20.40;12.20;;;;;;;9.05;91.58;101060.91;4953622;29;20043;-79
2022/11/15 06:24:10;;;;;;;19.77;11.73;;;;;;;8.76;91.93;101048.34;4953784;29;20394;-79
2022/11/15 06:26:58;;;;;;;24.17;10.98;;;;;;;8.81;92.43;101072.94;4951772;29;20055;-78
2022/11/15 06:29:45;;;;;;;20.13;11.52;;;;;;;8.79;92.34;101058.75;4950112;29;20050;-78
2022/11/15 06:32:32;;;;;;;21.15;11.10;;;;;;;8.78;92.10;101064.44;4949121;29;20050;-78
2022/11/15 06:35:19;;;;;;;21.40;10.55;;;;;;;8.81;92.01;101072.94;4949747;29;20438;-78
2022/11/15 06:38:08;;;;;;;19.55;9.80;;;;;;;8.95;90.99;101070.63;5269275;23;20071;-80
2022/11/15 06:41:00;;;;;;;20.88;11.90;;;;;;;8.94;90.66;101066.25;4962010;28;20051;-80
2022/11/15 06:43:47;;;;;;;22.17;10.70;;;;;;;8.80;91.52;101082.22;4951445;29;20047;-80
2022/11/15 06:46:33;;;;;;;17.98;10.57;;;;;;;9.03;90.91;101063.91;4950727;29;20047;-80
2022/11/15 06:49:19;;;;;;;26.77;12.73;;;;;;;8.17;93.18;101063.41;4949899;28;20035;-73
2022/11/15 06:52:06;;;;;;;19.40;10.73;;;;;;;7.70;98.36;101072.81;4951591;28;20039;-73
2022/11/15 06:54:52;;;;;;;22.67;11.10;;;;;;;7.87;97.97;101072.81;4950924;28;20058;-72
2022/11/15 06:57:46;;;;;;;17.00;10.07;;;;;;;7.13;100.00;101083.56;4949943;29;20137;-73
2022/11/15 07:00:33;;;;;;;18.52;10.68;;;;;;;7.25;100.00;101089.78;4950810;29;20039;-73
2022/11/15 07:03:19;;;;;;;22.73;12.30;;;;;;;7.22;100.00;101081.25;4952299;29;20056;-72
2022/11/15 07:06:07;;;;;;;23.10;11.52;;;;;;;7.36;100.00;101085.34;4952395;28;20051;-73
2022/11/15 07:08:53;;;;;;;26.70;12.88;;;;;;;7.24;100.00;101087.31;4955842;29;20055;-72
2022/11/15 07:11:39;;;;;;;27.77;13.70;;;;;;;7.47;100.00;101082.78;4955715;29;20062;-73
2022/11/15 07:14:26;;;;;;;31.40;15.68;;;;;;;7.38;100.00;101085.09;4955841;28;20059;-72
2022/11/15 07:17:12;;;;;;;32.60;16.10;;;;;;;7.43;100.00;101078.91;4955667;28;20062;-72
2022/11/15 07:19:59;;;;;;;30.13;15.02;;;;;;;7.31;100.00;101074.38;4955973;29;20511;-72
2022/11/15 07:22:45;;;;;;;30.70;15.00;;;;;;;7.61;100.00;101083.28;4956028;29;20047;-73
2022/11/15 07:25:31;;;;;;;26.45;14.60;;;;;;;7.41;100.00;101079.16;4956003;29;20051;-73
2022/11/15 07:28:18;;;;;;;28.35;14.68;;;;;;;7.28;100.00;101090.38;4955490;28;20047;-73
2022/11/15 07:31:06;;;;;;;25.42;15.05;;;;;;;7.48;100.00;101089.91;4955453;28;20047;-73
2022/11/15 07:33:53;;;;;;;31.20;14.45;;;;;;;7.72;100.00;101084.28;4955895;29;20405;-73
2022/11/15 07:36:39;;;;;;;29.67;14.48;;;;;;;7.73;100.00;101086.75;4955369;28;20051;-73
2022/11/15 07:39:25;;;;;;;26.35;14.43;;;;;;;7.55;100.00;101096.00;4954938;28;20058;-73
2022/11/15 07:45:16;;;;;;;34.50;16.08;;;;;;;7.90;100.00;101094.09;4955190;28;20055;-72
2022/11/15 07:48:03;;;;;;;35.13;16.52;;;;;;;8.17;100.00;101096.13;4955569;29;20062;-73
2022/11/15 07:50:50;;;;;;;30.60;15.35;;;;;;;8.26;100.00;101094.59;4955545;28;20055;-73
2022/11/15 07:53:36;;;;;;;28.85;16.52;;;;;;;8.21;100.00;101102.72;4954990;28;20047;-72
2022/11/15 07:56:22;;;;;;;31.02;15.00;;;;;;;8.15;100.00;101101.84;4955442;29;20490;-72
2022/11/15 07:59:08;;;;;;;31.83;15.40;;;;;;;8.30;100.00;101100.38;4954861;28;20078;-73
2022/11/15 08:01:55;;;;;;;29.30;15.25;;;;;;;8.33;100.00;101094.44;4955038;28;20051;-72
2022/11/15 08:04:41;;;;;;;24.70;13.20;;;;;;;8.23;100.00;101095.13;4954888;28;20076;-73
2022/11/15 08:07:31;;;;;;;27.60;12.60;;;;;;;8.47;100.00;101087.53;4955274;29;20455;-73
2022/11/15 08:10:18;;;;;;;22.15;12.15;;;;;;;8.48;100.00;101085.63;4954940;28;20058;-73
2022/11/15 08:13:07;;;;;;;23.88;11.98;;;;;;;8.50;100.00;101079.94;4954935;28;20051;-73
2022/11/15 08:16:00;;;;;;;22.98;11.82;;;;;;;8.55;100.00;101088.22;4955017;29;20499;-72
2022/11/15 08:18:47;;;;;;;23.00;11.85;;;;;;;8.59;100.00;101083.88;4953275;28;20062;-72
2022/11/15 08:21:34;;;;;;;22.02;12.80;;;;;;;8.68;100.00;101089.72;4955010;29;20047;-73
2022/11/15 08:24:21;;;;;;;24.85;12.63;;;;;;;8.45;100.00;101083.41;4954699;28;20059;-73
2022/11/15 08:27:14;;;;;;;26.10;13.23;;;;;;;8.55;100.00;101080.84;4954565;28;20044;-72
2022/11/15 08:30:01;;;;;;;28.23;13.27;;;;;;;8.49;100.00;101073.63;4954548;28;20047;-72
2022/11/15 08:32:49;;;;;;;28.42;13.98;;;;;;;8.49;100.00;101076.38;4954568;28;20058;-73
2022/11/15 08:35:35;;;;;;;30.65;15.57;;;;;;;8.62;100.00;101083.38;4954432;28;20051;-73
2022/11/15 08:38:21;;;;;;;27.23;13.38;;;;;;;8.66;100.00;101083.69;4954138;28;20066;-73
2022/11/15 08:41:25;;;;;;;27.48;14.25;;;;;;;8.78;100.00;101089.84;4954752;29;20047;-73
2022/11/15 08:44:11;;;;;;;24.45;13.25;;;;;;;8.62;100.00;101079.81;4954385;28;20516;-73
2022/11/15 08:46:57;;;;;;;26.70;13.13;;;;;;;8.53;100.00;101072.09;4954288;28;20058;-73
2022/11/15 08:49:43;;;;;;;26.65;13.35;;;;;;;8.48;100.00;101074.72;4954261;28;20048;-72
2022/11/15 08:52:30;;;;;;;23.95;12.00;;;;;;;8.65;100.00;101082.06;4954108;28;20070;-73
2022/11/15 08:55:16;;;;;;;26.67;13.02;;;;;;;9.10;100.00;101080.88;4954380;28;20051;-73
2022/11/15 08:58:03;;;;;;;19.10;11.93;;;;;;;9.35;100.00;101087.72;4953913;28;20055;-73
2022/11/15 09:00:49;;;;;;;25.85;12.90;;;;;;;9.41;100.00;101086.66;4954065;28;20128;-73
2022/11/15 09:03:35;;;;;;;19.08;10.75;;;;;;;9.50;98.69;101081.56;4952858;29;20063;-73
2022/11/15 09:06:22;;;;;;;18.98;11.25;;;;;;;9.71;98.43;101095.38;4953937;28;20062;-73
2022/11/15 09:09:08;;;;;;;19.90;12.75;;;;;;;9.66;97.36;101087.13;4954263;29;20051;-73
2022/11/15 09:11:54;;;;;;;20.75;11.93;;;;;;;9.76;96.73;101080.91;4953928;28;20720;-73
2022/11/15 09:14:47;;;;;;;21.65;12.15;;;;;;;9.73;98.33;101084.19;4952992;29;20414;-73
2022/11/15 09:17:33;;;;;;;23.08;12.23;;;;;;;9.75;99.95;101071.06;4953704;28;20059;-73
2022/11/15 09:20:20;;;;;;;26.33;12.95;;;;;;;9.85;96.86;101073.03;4953617;28;20055;-73
2022/11/15 09:23:06;;;;;;;21.35;11.27;;;;;;;9.67;98.03;101083.31;4953665;28;20533;-73
2022/11/15 09:26:02;;;;;;;23.90;13.35;;;;;;;9.89;95.36;101069.53;4953362;28;20055;-73
2022/11/15 09:28:48;;;;;;;19.55;11.13;;;;;;;9.85;97.98;101073.88;4953975;29;20499;-73
2022/11/15 09:31:35;;;;;;;21.33;12.23;;;;;;;9.81;97.99;101080.94;4953385;28;20047;-73
2022/11/15 09:34:21;;;;;;;21.75;11.88;;;;;;;9.80;97.04;101066.47;4953872;28;20051;-72
2022/11/15 09:37:07;;;;;;;26.60;12.93;;;;;;;9.93;96.63;101070.66;4953415;28;20059;-73
2022/11/15 09:39:53;;;;;;;23.55;12.07;;;;;;;9.94;95.89;101076.94;4953243;28;20074;-73
2022/11/15 09:42:45;;;;;;;24.73;11.82;;;;;;;9.92;96.83;101079.94;4953472;28;20611;-73
2022/11/15 09:45:46;;;;;;;21.95;12.13;;;;;;;9.78;96.94;101068.63;4953863;29;20422;-73
2022/11/15 09:48:37;;;;;;;20.83;11.43;;;;;;;9.92;96.98;101058.06;4954533;28;20418;-74
2022/11/15 09:51:34;;;;;;;20.35;11.10;;;;;;;9.94;96.54;101061.34;4950493;29;20058;-74
2022/11/15 09:54:07;;;;;;;21.05;11.45;;;;;;;9.90;98.70;101062.16;4953776;29;20058;-74
2022/11/15 09:57:18;;;;;;;22.60;12.95;;;;;;;10.08;98.17;101058.97;4952121;29;20066;-74
2022/11/15 10:00:07;;;;;;;25.98;13.50;;;;;;;10.24;96.32;101067.28;4953419;28;20406;-74
2022/11/15 10:03:13;;;;;;;19.10;11.32;;;;;;;10.21;97.22;101060.44;4953260;28;20058;-73
2022/11/15 10:05:47;;;;;;;20.50;12.43;;;;;;;10.16;96.72;101057.66;4953599;29;20058;-74
2022/11/15 10:08:21;;;;;;;21.88;12.57;;;;;;;10.13;96.94;101054.63;4953345;28;20059;-74
2022/11/15 10:10:55;;;;;;;21.70;12.80;;;;;;;10.24;97.69;101052.75;4953233;29;20058;-74
2022/11/15 10:13:47;;;;;;;21.95;11.75;;;;;;;10.24;98.37;101041.81;4953357;28;20560;-74
2022/11/15 10:16:46;;;;;;;25.33;13.35;;;;;;;10.09;97.64;101036.00;4953078;28;20051;-74
2022/11/15 10:19:26;;;;;;;27.27;14.10;;;;;;;10.02;99.79;101015.47;4953306;28;20055;-73
2022/11/15 10:22:14;;;;;;;23.70;13.52;;;;;;;10.24;99.11;101019.94;4953501;28;20055;-73
2022/11/15 10:24:44;;;;;;;24.80;12.50;;;;;;;10.10;99.96;101020.44;4951102;29;20051;-73
2022/11/15 10:27:15;;;;;;;25.20;13.05;;;;;;;10.46;97.92;101011.59;4953287;28;20398;-73
2022/11/15 10:29:45;;;;;;;25.65;13.57;;;;;;;10.60;96.38;101010.00;4953316;28;20390;-73
2022/11/15 10:32:15;;;;;;;27.90;13.57;;;;;;;10.45;98.51;101007.19;4953291;28;20066;-73
2022/11/15 10:34:44;;;;;;;27.10;13.18;;;;;;;10.42;97.32;101002.25;4952888;28;20607;-73
2022/11/15 10:37:12;;;;;;;22.77;13.63;;;;;;;10.46;98.41;101003.41;4953126;28;20055;-73
2022/11/15 10:39:40;;;;;;;21.90;12.77;;;;;;;10.50;97.35;100992.72;4953080;29;20044;-73
2022/11/15 10:42:26;;;;;;;27.05;14.13;;;;;;;10.43;98.35;100991.06;4953854;28;20056;-73
2022/11/15 10:44:54;;;;;;;21.25;13.15;;;;;;;10.45;98.66;100994.34;4957079;29;20047;-73
2022/11/15 10:47:25;;;;;;;24.23;13.35;;;;;;;10.39;97.93;100983.63;4956732;28;20058;-73
2022/11/15 10:49:58;;;;;;;23.25;12.27;;;;;;;10.45;98.64;100988.03;4956456;28;20525;-73
2022/11/15 10:52:26;;;;;;;26.13;13.88;;;;;;;10.44;98.68;100981.75;4956781;29;20054;-73
2022/11/15 10:55:11;;;;;;;23.48;12.82;;;;;;;10.68;99.17;100978.53;4956811;29;20047;-73
2022/11/15 10:57:39;;;;;;;22.77;12.15;;;;;;;10.63;97.69;100973.06;4970479;28;20525;-73
2022/11/15 11:00:32;;;;;;;29.38;14.02;;;;;;;10.93;98.50;100971.44;4956209;28;20402;-74
2022/11/15 11:03:03;;;;;;;23.13;12.93;;;;;;;11.14;97.39;100966.78;4956527;28;20058;-73
2022/11/15 11:05:37;;;;;;;22.48;13.50;;;;;;;11.06;96.10;100961.03;4956156;28;20430;-74
2022/11/15 11:08:15;;;;;;;24.35;13.23;;;;;;;11.02;96.23;100961.59;4956458;29;20058;-73
2022/11/15 11:10:53;;;;;;;;;;;;;;;10.95;97.49;100958.28;4956394;29;20051;-74
2022/11/15 11:13:28;;;;;;;;;;;;;;;11.01;95.83;100950.91;4956882;29;19923;-73
2022/11/15 11:16:14;;;;;;;19.35;11.27;;;;;;;11.11;94.88;100952.84;4955826;28;19929;-74
2022/11/15 11:18:56;;;;;;;29.50;14.77;;;;;;;11.01;94.96;100942.72;4955613;28;20047;-74
2022/11/15 11:21:46;;;;;;;24.63;13.55;;;;;;;11.07;96.10;100941.59;4955978;28;20490;-74
2022/11/15 11:24:28;;;;;;;24.50;13.55;;;;;;;11.02;95.96;100925.16;4955819;28;20590;-74
2022/11/15 11:27:29;;;;;;;26.90;13.25;;;;;;;10.99;96.81;100926.53;4956119;29;20050;-74
2022/11/15 11:30:33;;;;;;;24.23;11.93;;;;;;;11.02;99.38;100936.13;4955435;28;20062;-74
2022/11/15 11:33:12;;;;;;;22.90;12.50;;;;;;;11.02;97.45;100925.16;4955986;29;20133;-74
2022/11/15 11:35:55;;;;;;;19.85;12.35;;;;;;;11.01;97.03;100921.59;4955972;29;20047;-74
2022/11/15 11:38:47;;;;;;;24.25;12.15;;;;;;;11.02;99.22;100925.16;4955506;29;20062;-74
2022/11/15 11:41:38;;;;;;;21.70;11.35;;;;;;;11.10;98.41;100921.06;4955341;28;20062;-74
2022/11/15 11:44:21;;;;;;;21.90;11.70;;;;;;;11.04;97.30;100913.94;4953754;29;20058;-74
2022/11/15 11:46:58;;;;;;;24.83;12.93;;;;;;;10.91;96.80;100907.94;4955222;28;20067;-74
2022/11/15 11:49:33;;;;;;;20.90;11.85;;;;;;;11.13;97.30;100899.41;4955372;28;20068;-74
2022/11/15 11:52:15;;;;;;;19.88;12.25;;;;;;;11.04;96.60;100898.31;4955600;29;20063;-74
2022/11/15 11:54:54;;;;;;;23.25;12.80;;;;;;;10.96;97.30;100901.63;4955312;29;20059;-74
2022/11/15 11:57:48;;;;;;;21.73;12.57;;;;;;;10.98;97.59;100893.94;4954934;28;20058;-75
2022/11/15 12:00:27;;;;;;;22.33;11.43;;;;;;;10.96;97.81;100898.88;4955465;29;20044;-74
2022/11/15 12:03:05;;;;;;;23.58;12.20;;;;;;;11.11;98.95;100896.13;4955138;28;20058;-74
2022/11/15 12:05:51;;;;;;;24.02;12.70;;;;;;;11.34;97.53;100887.59;4955056;28;20051;-74
2022/11/15 12:08:32;;;;;;;22.77;11.80;;;;;;;11.50;96.59;100888.38;4955406;29;20051;-74
2022/11/15 12:11:17;;;;;;;18.83;12.23;;;;;;;11.38;97.91;100880.47;4955438;29;20406;-74
2022/11/15 12:13:49;;;;;;;22.90;12.03;;;;;;;11.56;97.93;100871.66;4954946;28;20993;-75
2022/11/15 12:16:22;;;;;;;20.73;12.13;;;;;;;11.52;97.79;100862.34;4954820;29;20306;-74
2022/11/15 12:18:53;;;;;;;19.40;11.35;;;;;;;11.40;98.26;100865.38;4954539;28;20510;-75
2022/11/15 12:21:27;;;;;;;17.77;11.43;;;;;;;11.44;98.97;100849.19;4954767;28;20051;-74
2022/11/15 12:24:20;;;;;;;18.45;11.30;;;;;;;11.66;97.56;100856.25;4955097;29;20047;-74
2022/11/15 12:26:58;;;;;;;22.13;12.48;;;;;;;11.86;95.20;100860.81;4954471;28;20047;-74
2022/11/15 12:29:38;;;;;;;20.23;11.90;;;;;;;11.88;95.59;100849.59;4954695;28;20517;-74
2022/11/15 12:32:23;;;;;;;21.10;11.52;;;;;;;11.90;95.19;100856.44;4954921;29;20050;-74
2022/11/15 12:34:53;;;;;;;21.67;12.48;;;;;;;11.75;95.77;100843.63;4954777;28;20051;-74
2022/11/15 12:37:43;;;;;;;18.20;11.70;;;;;;;11.85;95.38;100844.66;4954821;28;21085;-74
2022/11/15 12:40:23;;;;;;;19.25;10.75;;;;;;;11.78;96.08;100844.97;4954481;29;20394;-74
2022/11/15 12:43:14;;;;;;;16.15;10.43;;;;;;;11.79;96.27;100833.72;4954285;28;20047;-74
2022/11/15 12:45:44;;;;;;;22.00;11.23;;;;;;;11.78;96.21;100832.06;4908828;28;20051;-74
2022/11/15 12:48:18;;;;;;;18.27;11.38;;;;;;;11.73;94.86;100837.56;4954545;29;20051;-75
2022/11/15 12:50:55;;;;;;;20.08;12.18;;;;;;;11.79;96.44;100816.44;4954349;28;20457;-74
2022/11/15 12:53:22;;;;;;;17.50;9.98;;;;;;;12.01;92.95;100824.28;4954341;28;20051;-83
2022/11/15 12:56:12;;;;;;;19.40;12.02;;;;;;;12.18;93.53;100817.63;4952715;29;20058;-83